sensor_id;sensor_type;location;lat;lon;timestamp;pressure;altitude;pressure_sealevel;temperature;humidity
3748;BME280;1889;50.058;8.688;2023-08-06T00:01:06;99357.69;;;18.99;78.79
3748;BME280;1889;50.058;8.688;2023-08-06T00:03:35;99359.78;;;19.01;78.98
3748;BME280;1889;50.058;8.688;2023-08-06T00:06:07;99353.83;;;19.18;78.51
3748;BME280;1889;50.058;8.688;2023-08-06T00:08:36;99349.16;;;19.21;78.20
3748;BME280;1889;50.058;8.688;2023-08-06T00:11:05;99354.53;;;19.34;77.92
3748;BME280;1889;50.058;8.688;2023-08-06T00:13:35;99350.56;;;19.27;78.25
3748;BME280;1889;50.058;8.688;2023-08-06T00:16:13;99351.70;;;19.23;78.25
3748;BME280;1889;50.058;8.688;2023-08-06T00:18:43;99349.92;;;19.16;78.57
3748;BME280;1889;50.058;8.688;2023-08-06T00:21:12;99344.66;;;19.22;78.31
3748;BME280;1889;50.058;8.688;2023-08-06T00:23:41;99349.70;;;19.26;78.15
3748;BME280;1889;50.058;8.688;2023-08-06T00:26:10;99346.27;;;19.24;77.98
3748;BME280;1889;50.058;8.688;2023-08-06T00:28:39;99339.25;;;19.16;78.36
3748;BME280;1889;50.058;8.688;2023-08-06T00:31:08;99331.94;;;19.05;78.74
3748;BME280;1889;50.058;8.688;2023-08-06T00:33:38;99323.84;;;19.07;78.64
3748;BME280;1889;50.058;8.688;2023-08-06T00:36:07;99321.11;;;19.01;79.00
3748;BME280;1889;50.058;8.688;2023-08-06T00:38:36;99317.55;;;19.08;78.73
3748;BME280;1889;50.058;8.688;2023-08-06T00:41:05;99315.94;;;19.05;78.43
3748;BME280;1889;50.058;8.688;2023-08-06T00:43:34;99310.86;;;19.15;78.36
3748;BME280;1889;50.058;8.688;2023-08-06T00:46:03;99305.02;;;19.23;77.85
3748;BME280;1889;50.058;8.688;2023-08-06T00:48:32;99305.27;;;19.05;78.27
3748;BME280;1889;50.058;8.688;2023-08-06T00:51:02;99300.76;;;19.20;77.69
3748;BME280;1889;50.058;8.688;2023-08-06T00:53:31;99303.36;;;19.08;78.26
3748;BME280;1889;50.058;8.688;2023-08-06T00:56:01;99305.42;;;19.17;78.13
3748;BME280;1889;50.058;8.688;2023-08-06T00:58:30;99298.85;;;19.15;77.97
3748;BME280;1889;50.058;8.688;2023-08-06T01:00:59;99298.13;;;19.06;78.54
3748;BME280;1889;50.058;8.688;2023-08-06T01:03:28;99287.45;;;19.06;78.79
3748;BME280;1889;50.058;8.688;2023-08-06T01:05:58;99287.33;;;19.15;78.34
3748;BME280;1889;50.058;8.688;2023-08-06T01:08:41;99285.06;;;19.09;78.26
3748;BME280;1889;50.058;8.688;2023-08-06T01:11:33;99278.75;;;19.17;77.96
3748;BME280;1889;50.058;8.688;2023-08-06T01:14:18;99276.30;;;18.87;78.85
3748;BME280;1889;50.058;8.688;2023-08-06T01:16:50;99267.57;;;18.97;78.44
3748;BME280;1889;50.058;8.688;2023-08-06T01:19:21;99269.63;;;18.87;78.67
3748;BME280;1889;50.058;8.688;2023-08-06T01:21:50;99272.20;;;18.81;78.89
3748;BME280;1889;50.058;8.688;2023-08-06T01:24:20;99265.62;;;18.87;78.71
3748;BME280;1889;50.058;8.688;2023-08-06T01:26:59;99260.84;;;18.92;78.31
3748;BME280;1889;50.058;8.688;2023-08-06T01:29:28;99258.70;;;18.77;78.20
3748;BME280;1889;50.058;8.688;2023-08-06T01:31:56;99253.20;;;18.66;79.13
3748;BME280;1889;50.058;8.688;2023-08-06T01:34:28;99252.16;;;18.68;78.91
3748;BME280;1889;50.058;8.688;2023-08-06T01:37:00;99250.99;;;18.80;78.55
3748;BME280;1889;50.058;8.688;2023-08-06T01:39:31;99249.63;;;18.87;78.04
3748;BME280;1889;50.058;8.688;2023-08-06T01:42:00;99244.30;;;18.87;78.17
3748;BME280;1889;50.058;8.688;2023-08-06T01:44:29;99244.33;;;18.99;77.97
3748;BME280;1889;50.058;8.688;2023-08-06T01:46:58;99243.70;;;18.96;78.02
3748;BME280;1889;50.058;8.688;2023-08-06T01:49:27;99244.65;;;18.95;77.73
3748;BME280;1889;50.058;8.688;2023-08-06T01:51:57;99241.06;;;18.82;78.32
3748;BME280;1889;50.058;8.688;2023-08-06T01:54:26;99244.55;;;18.89;77.96
3748;BME280;1889;50.058;8.688;2023-08-06T01:56:55;99247.00;;;18.99;78.02
3748;BME280;1889;50.058;8.688;2023-08-06T01:59:26;99244.36;;;18.92;78.20
3748;BME280;1889;50.058;8.688;2023-08-06T02:01:55;99242.61;;;18.98;78.22
3748;BME280;1889;50.058;8.688;2023-08-06T02:04:24;99239.95;;;18.98;78.33
3748;BME280;1889;50.058;8.688;2023-08-06T02:06:53;99232.95;;;19.10;77.72
3748;BME280;1889;50.058;8.688;2023-08-06T02:09:22;99238.29;;;19.10;77.65
3748;BME280;1889;50.058;8.688;2023-08-06T02:11:51;99236.48;;;19.11;77.71
3748;BME280;1889;50.058;8.688;2023-08-06T02:14:20;99228.64;;;18.95;78.47
3748;BME280;1889;50.058;8.688;2023-08-06T02:16:49;99230.73;;;18.90;78.56
3748;BME280;1889;50.058;8.688;2023-08-06T02:19:18;99221.98;;;18.95;78.11
3748;BME280;1889;50.058;8.688;2023-08-06T02:21:48;99220.84;;;18.72;78.91
3748;BME280;1889;50.058;8.688;2023-08-06T02:24:17;99218.77;;;18.83;78.64
3748;BME280;1889;50.058;8.688;2023-08-06T02:26:46;99211.66;;;18.76;78.69
3748;BME280;1889;50.058;8.688;2023-08-06T02:29:17;99209.59;;;18.94;78.17
3748;BME280;1889;50.058;8.688;2023-08-06T02:31:46;99203.08;;;19.05;77.58
3748;BME280;1889;50.058;8.688;2023-08-06T02:34:15;99196.98;;;19.03;77.36
3748;BME280;1889;50.058;8.688;2023-08-06T02:36:44;99194.03;;;19.00;77.33
3748;BME280;1889;50.058;8.688;2023-08-06T02:39:13;99193.06;;;18.89;77.94
3748;BME280;1889;50.058;8.688;2023-08-06T02:41:42;99185.87;;;18.96;77.62
3748;BME280;1889;50.058;8.688;2023-08-06T02:44:11;99178.69;;;19.04;77.44
3748;BME280;1889;50.058;8.688;2023-08-06T02:46:40;99180.94;;;19.10;77.17
3748;BME280;1889;50.058;8.688;2023-08-06T02:49:09;99182.31;;;19.03;77.55
3748;BME280;1889;50.058;8.688;2023-08-06T02:51:38;99188.70;;;19.00;77.86
3748;BME280;1889;50.058;8.688;2023-08-06T02:54:07;99190.75;;;19.10;77.44
3748;BME280;1889;50.058;8.688;2023-08-06T02:56:36;99185.27;;;19.18;76.86
3748;BME280;1889;50.058;8.688;2023-08-06T02:59:06;99182.84;;;19.08;76.89
3748;BME280;1889;50.058;8.688;2023-08-06T03:01:35;99178.55;;;19.13;77.13
3748;BME280;1889;50.058;8.688;2023-08-06T03:04:04;99183.60;;;19.10;77.25
3748;BME280;1889;50.058;8.688;2023-08-06T03:06:33;99169.84;;;19.03;77.31
3748;BME280;1889;50.058;8.688;2023-08-06T03:09:02;99168.79;;;18.99;77.52
3748;BME280;1889;50.058;8.688;2023-08-06T03:11:31;99167.55;;;19.04;77.43
3748;BME280;1889;50.058;8.688;2023-08-06T03:14:00;99164.02;;;19.04;77.40
3748;BME280;1889;50.058;8.688;2023-08-06T03:16:29;99161.36;;;19.04;77.30
3748;BME280;1889;50.058;8.688;2023-08-06T03:18:58;99157.08;;;19.14;76.98
3748;BME280;1889;50.058;8.688;2023-08-06T03:21:27;99151.55;;;19.17;76.92
3748;BME280;1889;50.058;8.688;2023-08-06T03:23:56;99146.88;;;19.14;77.08
3748;BME280;1889;50.058;8.688;2023-08-06T03:26:25;99146.11;;;18.86;77.04
3748;BME280;1889;50.058;8.688;2023-08-06T03:28:54;99143.94;;;18.98;77.22
3748;BME280;1889;50.058;8.688;2023-08-06T03:31:23;99148.40;;;19.18;76.07
3748;BME280;1889;50.058;8.688;2023-08-06T03:33:52;99151.45;;;19.19;75.90
3748;BME280;1889;50.058;8.688;2023-08-06T03:36:21;99147.74;;;19.14;75.69
3748;BME280;1889;50.058;8.688;2023-08-06T03:38:50;99143.21;;;19.22;75.38
3748;BME280;1889;50.058;8.688;2023-08-06T03:41:20;99150.44;;;19.27;75.15
3748;BME280;1889;50.058;8.688;2023-08-06T03:43:49;99139.82;;;19.20;75.35
3748;BME280;1889;50.058;8.688;2023-08-06T03:46:18;99140.21;;;19.01;75.97
3748;BME280;1889;50.058;8.688;2023-08-06T03:48:47;99131.11;;;19.11;75.85
3748;BME280;1889;50.058;8.688;2023-08-06T03:51:16;99137.34;;;19.04;75.35
3748;BME280;1889;50.058;8.688;2023-08-06T03:53:45;99128.98;;;18.83;75.72
3748;BME280;1889;50.058;8.688;2023-08-06T03:56:14;99129.39;;;18.97;75.74
3748;BME280;1889;50.058;8.688;2023-08-06T03:58:43;99119.73;;;19.01;75.08
3748;BME280;1889;50.058;8.688;2023-08-06T04:01:12;99119.97;;;18.79;75.69
3748;BME280;1889;50.058;8.688;2023-08-06T04:03:41;99121.83;;;18.84;75.11
3748;BME280;1889;50.058;8.688;2023-08-06T04:06:10;99128.06;;;18.77;74.75
3748;BME280;1889;50.058;8.688;2023-08-06T04:08:39;99110.05;;;18.61;75.24
3748;BME280;1889;50.058;8.688;2023-08-06T04:11:08;99110.05;;;18.61;75.24
3748;BME280;1889;50.058;8.688;2023-08-06T04:13:37;99118.25;;;18.78;74.61
3748;BME280;1889;50.058;8.688;2023-08-06T04:16:06;99123.87;;;18.73;74.69
3748;BME280;1889;50.058;8.688;2023-08-06T04:18:35;99124.24;;;18.54;75.18
3748;BME280;1889;50.058;8.688;2023-08-06T04:21:04;99118.14;;;18.59;75.33
3748;BME280;1889;50.058;8.688;2023-08-06T04:23:33;99117.72;;;18.73;74.92
3748;BME280;1889;50.058;8.688;2023-08-06T04:26:02;99119.70;;;18.56;75.71
3748;BME280;1889;50.058;8.688;2023-08-06T04:28:31;99119.10;;;18.51;75.77
3748;BME280;1889;50.058;8.688;2023-08-06T04:31:01;99123.72;;;18.69;74.95
3748;BME280;1889;50.058;8.688;2023-08-06T04:33:30;99131.84;;;18.26;75.91
3748;BME280;1889;50.058;8.688;2023-08-06T04:35:59;99128.73;;;18.20;76.64
3748;BME280;1889;50.058;8.688;2023-08-06T04:38:28;99132.25;;;18.20;76.66
3748;BME280;1889;50.058;8.688;2023-08-06T04:40:58;99136.02;;;17.97;77.69
3748;BME280;1889;50.058;8.688;2023-08-06T04:43:27;99130.52;;;18.00;77.97
3748;BME280;1889;50.058;8.688;2023-08-06T04:45:56;99134.84;;;18.15;77.82
3748;BME280;1889;50.058;8.688;2023-08-06T04:48:25;99128.19;;;18.15;77.87
3748;BME280;1889;50.058;8.688;2023-08-06T04:50:54;99128.68;;;18.34;77.40
3748;BME280;1889;50.058;8.688;2023-08-06T04:53:23;99134.97;;;18.40;77.35
3748;BME280;1889;50.058;8.688;2023-08-06T04:55:52;99134.36;;;18.56;76.56
3748;BME280;1889;50.058;8.688;2023-08-06T04:58:21;99137.09;;;18.55;76.66
3748;BME280;1889;50.058;8.688;2023-08-06T05:00:51;99139.20;;;18.77;75.86
3748;BME280;1889;50.058;8.688;2023-08-06T05:03:22;99139.20;;;18.77;75.86
3748;BME280;1889;50.058;8.688;2023-08-06T05:05:51;99137.38;;;18.50;77.81
3748;BME280;1889;50.058;8.688;2023-08-06T05:08:20;99132.73;;;18.74;76.91
3748;BME280;1889;50.058;8.688;2023-08-06T05:10:50;99132.73;;;18.74;76.91
3748;BME280;1889;50.058;8.688;2023-08-06T05:13:19;99129.95;;;18.28;79.74
3748;BME280;1889;50.058;8.688;2023-08-06T05:15:48;99132.42;;;18.32;80.02
3748;BME280;1889;50.058;8.688;2023-08-06T05:18:17;99125.89;;;18.43;79.55
3748;BME280;1889;50.058;8.688;2023-08-06T05:20:47;99127.28;;;18.28;80.60
3748;BME280;1889;50.058;8.688;2023-08-06T05:23:16;99131.31;;;18.41;80.11
3748;BME280;1889;50.058;8.688;2023-08-06T05:25:46;99126.80;;;18.29;81.20
3748;BME280;1889;50.058;8.688;2023-08-06T05:28:15;99130.75;;;18.43;80.87
3748;BME280;1889;50.058;8.688;2023-08-06T05:30:44;99136.10;;;18.36;81.24
3748;BME280;1889;50.058;8.688;2023-08-06T05:33:13;99134.84;;;18.42;80.98
3748;BME280;1889;50.058;8.688;2023-08-06T05:35:42;99134.91;;;18.54;80.58
3748;BME280;1889;50.058;8.688;2023-08-06T05:38:11;99135.79;;;18.48;80.99
3748;BME280;1889;50.058;8.688;2023-08-06T05:40:40;99135.68;;;18.22;82.30
3748;BME280;1889;50.058;8.688;2023-08-06T05:43:09;99136.36;;;18.12;83.18
3748;BME280;1889;50.058;8.688;2023-08-06T05:45:38;99136.05;;;18.16;82.88
3748;BME280;1889;50.058;8.688;2023-08-06T05:48:07;99136.05;;;18.16;82.88
3748;BME280;1889;50.058;8.688;2023-08-06T05:50:36;99134.44;;;18.21;82.42
3748;BME280;1889;50.058;8.688;2023-08-06T05:53:05;99131.69;;;18.22;81.91
3748;BME280;1889;50.058;8.688;2023-08-06T05:55:35;99138.95;;;18.33;81.63
3748;BME280;1889;50.058;8.688;2023-08-06T05:58:04;99138.80;;;18.29;81.44
3748;BME280;1889;50.058;8.688;2023-08-06T06:00:34;99140.67;;;18.34;81.47
3748;BME280;1889;50.058;8.688;2023-08-06T06:03:04;99133.66;;;18.26;81.71
3748;BME280;1889;50.058;8.688;2023-08-06T06:05:33;99135.94;;;18.25;81.75
3748;BME280;1889;50.058;8.688;2023-08-06T06:08:02;99142.71;;;18.16;81.95
3748;BME280;1889;50.058;8.688;2023-08-06T06:10:31;99134.98;;;18.26;81.83
3748;BME280;1889;50.058;8.688;2023-08-06T06:13:00;99145.14;;;17.92;83.75
3748;BME280;1889;50.058;8.688;2023-08-06T06:15:29;99145.95;;;17.66;84.79
3748;BME280;1889;50.058;8.688;2023-08-06T06:17:58;99151.44;;;17.77;84.85
3748;BME280;1889;50.058;8.688;2023-08-06T06:20:28;99145.37;;;17.82;84.83
3748;BME280;1889;50.058;8.688;2023-08-06T06:22:57;99141.07;;;17.87;84.40
3748;BME280;1889;50.058;8.688;2023-08-06T06:25:26;99146.47;;;17.92;83.78
3748;BME280;1889;50.058;8.688;2023-08-06T06:27:55;99154.39;;;17.80;84.37
3748;BME280;1889;50.058;8.688;2023-08-06T06:30:24;99147.07;;;17.90;85.26
3748;BME280;1889;50.058;8.688;2023-08-06T06:32:53;99143.45;;;17.91;85.04
3748;BME280;1889;50.058;8.688;2023-08-06T06:35:22;99145.98;;;18.14;84.01
3748;BME280;1889;50.058;8.688;2023-08-06T06:37:51;99146.31;;;18.29;83.46
3748;BME280;1889;50.058;8.688;2023-08-06T06:40:20;99146.38;;;18.35;83.31
3748;BME280;1889;50.058;8.688;2023-08-06T06:42:49;99144.05;;;18.23;84.30
3748;BME280;1889;50.058;8.688;2023-08-06T06:45:18;99146.22;;;18.31;84.40
3748;BME280;1889;50.058;8.688;2023-08-06T06:47:47;99144.19;;;18.35;84.31
3748;BME280;1889;50.058;8.688;2023-08-06T06:50:17;99141.05;;;18.35;83.51
3748;BME280;1889;50.058;8.688;2023-08-06T06:52:46;99142.86;;;18.08;85.00
3748;BME280;1889;50.058;8.688;2023-08-06T06:55:15;99141.91;;;17.95;85.15
3748;BME280;1889;50.058;8.688;2023-08-06T06:57:44;99139.48;;;18.18;84.69
3748;BME280;1889;50.058;8.688;2023-08-06T07:00:14;99143.42;;;18.06;85.47
3748;BME280;1889;50.058;8.688;2023-08-06T07:02:43;99139.83;;;18.00;85.89
3748;BME280;1889;50.058;8.688;2023-08-06T07:05:12;99139.16;;;17.96;86.04
3748;BME280;1889;50.058;8.688;2023-08-06T07:07:41;99144.02;;;17.89;86.70
3748;BME280;1889;50.058;8.688;2023-08-06T07:10:10;99143.73;;;17.87;86.87
3748;BME280;1889;50.058;8.688;2023-08-06T07:12:39;99144.08;;;18.02;86.10
3748;BME280;1889;50.058;8.688;2023-08-06T07:15:09;99143.20;;;18.23;84.62
3748;BME280;1889;50.058;8.688;2023-08-06T07:17:38;99134.32;;;17.88;85.21
3748;BME280;1889;50.058;8.688;2023-08-06T07:20:08;99144.41;;;17.90;86.15
3748;BME280;1889;50.058;8.688;2023-08-06T07:22:38;99144.88;;;17.76;86.95
3748;BME280;1889;50.058;8.688;2023-08-06T07:25:07;99143.44;;;17.56;88.12
3748;BME280;1889;50.058;8.688;2023-08-06T07:27:36;99145.72;;;17.48;88.39
3748;BME280;1889;50.058;8.688;2023-08-06T07:30:06;99148.31;;;17.64;88.12
3748;BME280;1889;50.058;8.688;2023-08-06T07:32:36;99150.80;;;17.67;88.85
3748;BME280;1889;50.058;8.688;2023-08-06T07:35:05;99152.20;;;17.79;87.30
3748;BME280;1889;50.058;8.688;2023-08-06T07:37:35;99149.05;;;17.87;86.83
3748;BME280;1889;50.058;8.688;2023-08-06T07:40:05;99147.46;;;17.63;87.18
3748;BME280;1889;50.058;8.688;2023-08-06T07:42:34;99146.66;;;17.47;89.17
3748;BME280;1889;50.058;8.688;2023-08-06T07:45:04;99152.25;;;17.35;89.47
3748;BME280;1889;50.058;8.688;2023-08-06T07:47:33;99152.16;;;17.37;90.35
3748;BME280;1889;50.058;8.688;2023-08-06T07:50:02;99152.75;;;17.35;91.46
3748;BME280;1889;50.058;8.688;2023-08-06T07:52:31;99147.61;;;17.32;91.43
3748;BME280;1889;50.058;8.688;2023-08-06T07:55:00;99151.12;;;17.39;90.83
3748;BME280;1889;50.058;8.688;2023-08-06T07:57:31;99153.39;;;17.17;92.06
3748;BME280;1889;50.058;8.688;2023-08-06T08:00:02;99143.70;;;17.16;93.37
3748;BME280;1889;50.058;8.688;2023-08-06T08:02:31;99145.98;;;17.36;93.37
3748;BME280;1889;50.058;8.688;2023-08-06T08:05:00;99145.41;;;17.60;91.66
3748;BME280;1889;50.058;8.688;2023-08-06T08:07:29;99145.19;;;17.64;90.91
3748;BME280;1889;50.058;8.688;2023-08-06T08:09:59;99144.00;;;17.47;90.95
3748;BME280;1889;50.058;8.688;2023-08-06T08:12:28;99131.56;;;17.33;91.08
3748;BME280;1889;50.058;8.688;2023-08-06T08:14:57;99144.09;;;17.45;91.50
3748;BME280;1889;50.058;8.688;2023-08-06T08:17:26;99140.87;;;17.47;90.79
3748;BME280;1889;50.058;8.688;2023-08-06T08:19:55;99135.28;;;17.59;90.62
3748;BME280;1889;50.058;8.688;2023-08-06T08:22:24;99133.77;;;17.69;91.04
3748;BME280;1889;50.058;8.688;2023-08-06T08:24:53;99126.72;;;17.89;90.40
3748;BME280;1889;50.058;8.688;2023-08-06T08:27:22;99133.25;;;18.05;89.02
3748;BME280;1889;50.058;8.688;2023-08-06T08:29:51;99125.40;;;18.16;88.30
3748;BME280;1889;50.058;8.688;2023-08-06T08:32:20;99129.33;;;18.11;89.67
3748;BME280;1889;50.058;8.688;2023-08-06T08:34:49;99125.64;;;18.33;87.82
3748;BME280;1889;50.058;8.688;2023-08-06T08:37:18;99116.37;;;18.46;88.00
3748;BME280;1889;50.058;8.688;2023-08-06T08:39:47;99121.89;;;18.43;88.31
3748;BME280;1889;50.058;8.688;2023-08-06T08:42:19;99123.67;;;18.49;89.18
3748;BME280;1889;50.058;8.688;2023-08-06T08:44:49;99119.06;;;18.85;88.07
3748;BME280;1889;50.058;8.688;2023-08-06T08:47:18;99114.45;;;18.75;85.27
3748;BME280;1889;50.058;8.688;2023-08-06T08:49:47;99119.73;;;18.82;85.81
3748;BME280;1889;50.058;8.688;2023-08-06T08:52:18;99119.35;;;19.00;84.27
3748;BME280;1889;50.058;8.688;2023-08-06T08:54:48;99113.23;;;19.18;82.78
3748;BME280;1889;50.058;8.688;2023-08-06T08:57:21;99107.45;;;18.66;83.55
3748;BME280;1889;50.058;8.688;2023-08-06T08:59:50;99113.67;;;19.12;83.70
3748;BME280;1889;50.058;8.688;2023-08-06T09:02:21;99107.00;;;19.12;81.36
3748;BME280;1889;50.058;8.688;2023-08-06T09:04:50;99106.99;;;19.25;82.00
3748;BME280;1889;50.058;8.688;2023-08-06T09:07:20;99106.77;;;19.02;81.54
3748;BME280;1889;50.058;8.688;2023-08-06T09:09:52;99100.05;;;19.22;81.27
3748;BME280;1889;50.058;8.688;2023-08-06T09:12:21;99094.28;;;19.41;80.87
3748;BME280;1889;50.058;8.688;2023-08-06T09:14:51;99092.27;;;19.70;80.50
3748;BME280;1889;50.058;8.688;2023-08-06T09:17:20;99088.81;;;19.99;79.89
3748;BME280;1889;50.058;8.688;2023-08-06T09:19:49;99094.36;;;20.14;79.10
3748;BME280;1889;50.058;8.688;2023-08-06T09:22:18;99094.47;;;20.12;78.42
3748;BME280;1889;50.058;8.688;2023-08-06T09:24:47;99102.67;;;20.04;78.48
3748;BME280;1889;50.058;8.688;2023-08-06T09:27:17;99098.56;;;19.56;80.02
3748;BME280;1889;50.058;8.688;2023-08-06T09:29:46;99099.08;;;19.74;80.01
3748;BME280;1889;50.058;8.688;2023-08-06T09:32:16;99091.16;;;19.29;82.00
3748;BME280;1889;50.058;8.688;2023-08-06T09:34:46;99100.20;;;19.39;83.38
3748;BME280;1889;50.058;8.688;2023-08-06T09:37:15;99094.86;;;19.14;86.48
3748;BME280;1889;50.058;8.688;2023-08-06T09:39:44;99094.77;;;19.15;84.31
3748;BME280;1889;50.058;8.688;2023-08-06T09:42:15;99099.88;;;18.80;84.49
3748;BME280;1889;50.058;8.688;2023-08-06T09:44:44;99086.93;;;18.54;85.50
3748;BME280;1889;50.058;8.688;2023-08-06T09:47:15;99086.64;;;18.91;84.62
3748;BME280;1889;50.058;8.688;2023-08-06T09:49:45;99089.53;;;19.14;83.17
3748;BME280;1889;50.058;8.688;2023-08-06T09:52:15;99100.48;;;19.16;82.56
3748;BME280;1889;50.058;8.688;2023-08-06T09:54:44;99098.48;;;18.41;84.18
3748;BME280;1889;50.058;8.688;2023-08-06T09:57:14;99104.64;;;17.95;88.77
3748;BME280;1889;50.058;8.688;2023-08-06T09:59:45;99113.01;;;17.96;89.11
3748;BME280;1889;50.058;8.688;2023-08-06T10:02:15;99120.25;;;17.86;91.25
3748;BME280;1889;50.058;8.688;2023-08-06T10:04:46;99117.47;;;17.60;94.06
3748;BME280;1889;50.058;8.688;2023-08-06T10:07:15;99116.25;;;17.86;93.57
3748;BME280;1889;50.058;8.688;2023-08-06T10:09:45;99121.19;;;18.26;91.79
3748;BME280;1889;50.058;8.688;2023-08-06T10:12:15;99120.28;;;18.47;90.29
3748;BME280;1889;50.058;8.688;2023-08-06T10:14:48;99119.33;;;18.41;89.82
3748;BME280;1889;50.058;8.688;2023-08-06T10:17:19;99115.92;;;18.66;88.57
3748;BME280;1889;50.058;8.688;2023-08-06T10:19:48;99115.20;;;18.77;87.79
3748;BME280;1889;50.058;8.688;2023-08-06T10:22:19;99112.12;;;18.83;87.46
3748;BME280;1889;50.058;8.688;2023-08-06T10:24:49;99112.34;;;18.53;85.19
3748;BME280;1889;50.058;8.688;2023-08-06T10:27:32;99108.44;;;18.51;87.44
3748;BME280;1889;50.058;8.688;2023-08-06T10:30:29;99101.16;;;18.67;86.25
3748;BME280;1889;50.058;8.688;2023-08-06T10:33:03;99102.16;;;18.92;85.81
3748;BME280;1889;50.058;8.688;2023-08-06T10:35:48;99102.55;;;18.93;85.96
3748;BME280;1889;50.058;8.688;2023-08-06T10:38:20;99105.59;;;19.06;85.42
3748;BME280;1889;50.058;8.688;2023-08-06T10:43:32;99099.09;;;19.23;84.84
3748;BME280;1889;50.058;8.688;2023-08-06T10:46:03;99111.59;;;19.35;84.94
3748;BME280;1889;50.058;8.688;2023-08-06T10:48:37;99103.41;;;19.31;83.49
3748;BME280;1889;50.058;8.688;2023-08-06T10:51:13;99100.65;;;19.46;83.40
3748;BME280;1889;50.058;8.688;2023-08-06T10:53:45;99109.96;;;19.53;83.12
3748;BME280;1889;50.058;8.688;2023-08-06T10:56:19;99106.54;;;19.51;82.46
3748;BME280;1889;50.058;8.688;2023-08-06T10:58:51;99103.97;;;19.49;81.69
3748;BME280;1889;50.058;8.688;2023-08-06T11:01:22;99110.72;;;19.73;81.39
3748;BME280;1889;50.058;8.688;2023-08-06T11:03:51;99114.48;;;19.58;80.16
3748;BME280;1889;50.058;8.688;2023-08-06T11:06:22;99114.95;;;19.19;80.89
3748;BME280;1889;50.058;8.688;2023-08-06T11:08:53;99107.74;;;19.65;79.27
3748;BME280;1889;50.058;8.688;2023-08-06T11:11:23;99101.79;;;19.98;78.58
3748;BME280;1889;50.058;8.688;2023-08-06T11:13:53;99101.33;;;20.22;78.73
3748;BME280;1889;50.058;8.688;2023-08-06T11:16:25;99100.55;;;20.33;78.19
3748;BME280;1889;50.058;8.688;2023-08-06T11:18:54;99095.27;;;20.44;77.26
3748;BME280;1889;50.058;8.688;2023-08-06T11:21:25;99095.52;;;20.76;75.58
3748;BME280;1889;50.058;8.688;2023-08-06T11:23:54;99087.32;;;21.01;73.30
3748;BME280;1889;50.058;8.688;2023-08-06T11:26:24;99088.97;;;20.74;73.03
3748;BME280;1889;50.058;8.688;2023-08-06T11:28:53;99093.37;;;20.86;72.85
3748;BME280;1889;50.058;8.688;2023-08-06T11:31:23;99102.73;;;20.81;72.50
3748;BME280;1889;50.058;8.688;2023-08-06T11:33:54;99103.66;;;20.45;72.69
3748;BME280;1889;50.058;8.688;2023-08-06T11:36:30;99098.84;;;20.32;75.47
3748;BME280;1889;50.058;8.688;2023-08-06T11:39:00;99104.17;;;20.08;77.59
3748;BME280;1889;50.058;8.688;2023-08-06T11:41:30;99117.63;;;19.88;76.57
3748;BME280;1889;50.058;8.688;2023-08-06T11:44:00;99127.39;;;20.13;74.30
3748;BME280;1889;50.058;8.688;2023-08-06T11:46:29;99127.28;;;19.78;75.53
3748;BME280;1889;50.058;8.688;2023-08-06T11:49:00;99128.58;;;19.91;76.41
3748;BME280;1889;50.058;8.688;2023-08-06T11:51:29;99136.39;;;19.94;76.84
3748;BME280;1889;50.058;8.688;2023-08-06T11:53:58;99136.39;;;19.94;77.47
3748;BME280;1889;50.058;8.688;2023-08-06T11:56:28;99144.74;;;19.64;79.37
3748;BME280;1889;50.058;8.688;2023-08-06T11:58:57;99150.36;;;19.09;82.14
3748;BME280;1889;50.058;8.688;2023-08-06T12:01:26;99159.30;;;18.95;82.01
3748;BME280;1889;50.058;8.688;2023-08-06T12:04:01;99174.17;;;18.38;85.24
3748;BME280;1889;50.058;8.688;2023-08-06T12:06:41;99186.52;;;17.98;87.06
3748;BME280;1889;50.058;8.688;2023-08-06T12:09:04;99199.27;;;17.72;90.32
3748;BME280;1889;50.058;8.688;2023-08-06T12:11:33;99205.58;;;17.41;96.63
3748;BME280;1889;50.058;8.688;2023-08-06T12:14:02;99207.43;;;17.18;100.00
3748;BME280;1889;50.058;8.688;2023-08-06T12:16:31;99211.83;;;17.03;100.00
3748;BME280;1889;50.058;8.688;2023-08-06T12:19:00;99214.42;;;17.11;100.00
3748;BME280;1889;50.058;8.688;2023-08-06T12:21:29;99226.21;;;17.14;100.00
3748;BME280;1889;50.058;8.688;2023-08-06T12:23:58;99226.63;;;16.70;99.55
3748;BME280;1889;50.058;8.688;2023-08-06T12:26:27;99230.86;;;16.65;100.00
3748;BME280;1889;50.058;8.688;2023-08-06T12:28:57;99234.82;;;16.81;100.00
3748;BME280;1889;50.058;8.688;2023-08-06T12:31:47;99234.82;;;16.81;100.00
3748;BME280;1889;50.058;8.688;2023-08-06T12:34:25;99254.14;;;16.69;100.00
3748;BME280;1889;50.058;8.688;2023-08-06T12:36:54;99257.19;;;16.70;100.00
3748;BME280;1889;50.058;8.688;2023-08-06T12:39:24;99260.07;;;16.81;99.86
3748;BME280;1889;50.058;8.688;2023-08-06T12:41:53;99258.68;;;17.12;100.00
3748;BME280;1889;50.058;8.688;2023-08-06T12:44:22;99260.35;;;17.29;95.03
3748;BME280;1889;50.058;8.688;2023-08-06T12:46:51;99271.75;;;17.24;91.35
3748;BME280;1889;50.058;8.688;2023-08-06T12:49:20;99272.70;;;17.30;90.30
3748;BME280;1889;50.058;8.688;2023-08-06T12:51:50;99275.88;;;17.44;89.39
3748;BME280;1889;50.058;8.688;2023-08-06T12:54:20;99281.61;;;17.22;89.42
3748;BME280;1889;50.058;8.688;2023-08-06T12:56:49;99291.98;;;17.57;89.87
3748;BME280;1889;50.058;8.688;2023-08-06T12:59:18;99287.72;;;17.31;90.23
3748;BME280;1889;50.058;8.688;2023-08-06T13:01:48;99294.81;;;17.53;91.22
3748;BME280;1889;50.058;8.688;2023-08-06T13:04:17;99291.20;;;17.47;90.54
3748;BME280;1889;50.058;8.688;2023-08-06T13:06:46;99299.09;;;17.49;91.06
3748;BME280;1889;50.058;8.688;2023-08-06T13:09:15;99303.59;;;17.33;91.08
3748;BME280;1889;50.058;8.688;2023-08-06T13:11:45;99308.14;;;17.31;91.02
3748;BME280;1889;50.058;8.688;2023-08-06T13:14:16;99319.20;;;17.62;90.88
3748;BME280;1889;50.058;8.688;2023-08-06T13:16:46;99316.75;;;17.43;89.19
3748;BME280;1889;50.058;8.688;2023-08-06T13:19:15;99328.31;;;17.35;89.07
3748;BME280;1889;50.058;8.688;2023-08-06T13:24:19;99325.91;;;17.30;89.01
3748;BME280;1889;50.058;8.688;2023-08-06T13:26:49;99328.42;;;17.40;88.71
3748;BME280;1889;50.058;8.688;2023-08-06T13:29:18;99342.28;;;17.15;89.84
3748;BME280;1889;50.058;8.688;2023-08-06T13:31:47;99341.00;;;17.07;90.60
3748;BME280;1889;50.058;8.688;2023-08-06T13:34:16;99350.28;;;17.23;91.66
3748;BME280;1889;50.058;8.688;2023-08-06T13:36:45;99345.96;;;17.36;90.66
3748;BME280;1889;50.058;8.688;2023-08-06T13:39:14;99362.45;;;17.42;89.77
3748;BME280;1889;50.058;8.688;2023-08-06T13:41:45;99356.09;;;17.06;88.60